createdAt,value
2019-01-22T00:02:21.388Z,48.50
2019-01-22T00:04:53.305Z,48.20
2019-01-22T00:07:25.235Z,48.20
2019-01-22T00:09:57.239Z,48.20
2019-01-22T00:12:29.095Z,48.80
2019-01-22T00:15:01.171Z,48.20
2019-01-22T00:17:35.456Z,48.30
2019-01-22T00:20:09.500Z,48.50
2019-01-22T00:22:41.365Z,48.40
2019-01-22T00:25:13.541Z,48.70
2019-01-22T00:27:45.399Z,48.80
2019-01-22T00:30:18.357Z,48.50
2019-01-22T00:32:50.257Z,48.80
2019-01-22T00:35:22.180Z,48.70
2019-01-22T00:37:54.390Z,48.60
2019-01-22T00:40:26.600Z,48.50
2019-01-22T00:42:58.444Z,48.40
2019-01-22T00:45:30.400Z,48.20
2019-01-22T00:48:02.325Z,48.00
2019-01-22T00:50:35.217Z,47.90
2019-01-22T00:53:10.066Z,47.50
2019-01-22T00:55:42.625Z,47.90
2019-01-22T00:58:15.114Z,48.20
2019-01-22T01:00:48.133Z,48.30
2019-01-22T01:03:19.990Z,48.40
2019-01-22T01:05:52.005Z,49.40
2019-01-22T01:08:24.169Z,49.30
2019-01-22T01:10:58.220Z,49.20
2019-01-22T01:13:32.403Z,49.10
2019-01-22T01:16:04.521Z,49.30
2019-01-22T01:18:37.412Z,49.60
2019-01-22T01:21:09.289Z,49.50
2019-01-22T01:23:41.151Z,49.70
2019-01-22T01:26:13.601Z,49.30
2019-01-22T01:28:45.998Z,48.90
2019-01-22T01:31:17.904Z,48.80
2019-01-22T01:33:49.798Z,48.90
2019-01-22T01:36:21.986Z,48.60
2019-01-22T01:38:53.871Z,48.30
2019-01-22T01:41:25.772Z,48.20
2019-01-22T01:43:57.639Z,48.50
2019-01-22T01:46:29.638Z,48.80
2019-01-22T01:49:01.499Z,48.60
2019-01-22T01:51:33.495Z,48.90
2019-01-22T01:54:05.355Z,49.80
2019-01-22T01:56:37.251Z,49.00
2019-01-22T01:59:09.499Z,48.70
2019-01-22T02:01:41.496Z,48.90
2019-01-22T02:04:13.362Z,49.40
2019-01-22T02:06:45.332Z,49.70
2019-01-22T02:09:17.152Z,49.90
2019-01-22T02:11:49.115Z,49.80
2019-01-22T02:14:29.184Z,49.60
2019-01-22T02:17:32.546Z,49.40
2019-01-22T02:21:26.285Z,49.20
2019-01-22T02:24:55.551Z,48.60
2019-01-22T02:28:35.246Z,48.50
2019-01-22T02:32:08.716Z,48.30
2019-01-22T02:35:22.806Z,48.50
2019-01-22T02:38:28.458Z,49.60
2019-01-22T02:41:26.604Z,49.00
2019-01-22T02:45:12.551Z,49.00
2019-01-22T02:48:53.300Z,49.10
2019-01-22T02:52:29.613Z,48.90
2019-01-22T02:55:22.293Z,48.80
2019-01-22T02:58:23.778Z,49.00
2019-01-22T03:01:39.905Z,49.20
2019-01-22T03:05:01.008Z,49.10
2019-01-22T03:08:17.981Z,49.20
2019-01-22T03:11:44.078Z,49.20
2019-01-22T03:15:29.746Z,49.80
2019-01-22T03:18:34.413Z,50.40
2019-01-22T03:22:03.441Z,50.80
2019-01-22T03:25:39.514Z,51.10
2019-01-22T03:28:50.681Z,51.10
2019-01-22T03:32:00.621Z,50.50
2019-01-22T03:35:38.537Z,50.40
2019-01-22T03:39:28.797Z,50.30
2019-01-22T03:42:54.242Z,50.10
2019-01-22T03:46:35.030Z,50.00
2019-01-22T03:49:33.141Z,50.80
2019-01-22T03:52:55.069Z,50.40
2019-01-22T03:56:11.165Z,50.30
2019-01-22T03:58:43.037Z,50.40
2019-01-22T04:01:27.681Z,50.50
2019-01-22T04:03:59.555Z,50.10
2019-01-22T04:06:46.216Z,49.80
2019-01-22T04:09:33.582Z,49.70
2019-01-22T04:12:05.703Z,49.90
2019-01-22T04:14:37.698Z,49.50
2019-01-22T04:17:09.552Z,49.00
2019-01-22T04:19:43.183Z,49.00
2019-01-22T04:22:42.876Z,49.00
2019-01-22T04:25:45.779Z,49.00
2019-01-22T04:29:15.358Z,49.30
2019-01-22T04:32:08.647Z,49.80
2019-01-22T04:36:04.914Z,50.50
2019-01-22T04:39:23.000Z,50.70
2019-01-22T04:42:56.846Z,51.10
2019-01-22T04:46:00.421Z,51.30
2019-01-22T04:48:57.113Z,51.80
2019-01-22T04:52:17.530Z,51.80
2019-01-22T04:56:11.269Z,51.30
2019-01-22T04:59:36.938Z,51.00
2019-01-22T05:03:05.689Z,51.10
2019-01-22T05:06:51.629Z,51.20
2019-01-22T05:10:16.495Z,51.80
2019-01-22T05:13:43.457Z,52.10
2019-01-22T05:17:08.436Z,51.90
2019-01-22T05:20:26.776Z,52.10
2019-01-22T05:23:49.638Z,52.50
2019-01-22T05:27:10.673Z,52.70
2019-01-22T05:30:16.512Z,52.60
2019-01-22T05:33:30.666Z,52.40
2019-01-22T05:37:03.548Z,52.20
2019-01-22T05:40:36.249Z,52.00
2019-01-22T05:43:43.803Z,51.90
2019-01-22T05:46:58.786Z,51.70
2019-01-22T05:50:30.889Z,52.20
2019-01-22T05:54:30.160Z,51.70
2019-01-22T05:57:19.562Z,51.90
2019-01-22T06:00:19.136Z,52.30
2019-01-22T06:03:37.082Z,52.20
2019-01-22T06:06:41.224Z,51.90
2019-01-22T06:09:37.925Z,51.50
2019-01-22T06:13:31.447Z,51.60
2019-01-22T06:16:39.561Z,51.90
2019-01-22T06:20:17.143Z,52.10
2019-01-22T06:23:37.418Z,51.90
2019-01-22T06:26:54.940Z,51.60
2019-01-22T06:30:35.074Z,51.40
2019-01-22T06:33:56.788Z,51.10
2019-01-22T06:37:41.241Z,51.40
2019-01-22T06:40:36.832Z,51.10
2019-01-22T06:43:59.706Z,50.90
2019-01-22T06:47:23.344Z,50.50
2019-01-22T06:50:20.534Z,50.50
2019-01-22T06:53:23.525Z,51.00
2019-01-22T06:56:46.861Z,51.40
2019-01-22T07:00:19.387Z,51.30
2019-01-22T07:03:26.474Z,51.40
2019-01-22T07:06:43.438Z,51.50
2019-01-22T07:09:54.699Z,51.50
2019-01-22T07:12:59.904Z,51.50
2019-01-22T07:16:21.713Z,51.30
2019-01-22T07:19:30.984Z,50.30
2019-01-22T07:23:11.934Z,50.00
2019-01-22T07:26:46.439Z,50.00
2019-01-22T07:30:13.130Z,50.20
2019-01-22T07:33:47.241Z,51.50
2019-01-22T07:37:24.192Z,51.80
2019-01-22T07:40:41.059Z,53.30
2019-01-22T07:43:30.590Z,52.70
2019-01-22T07:47:08.845Z,52.90
2019-01-22T07:50:27.870Z,52.90
2019-01-22T07:54:11.065Z,53.00
2019-01-22T07:57:33.590Z,52.80
2019-01-22T08:00:34.589Z,53.10
2019-01-22T08:04:10.938Z,53.50
2019-01-22T08:07:23.790Z,53.40
2019-01-22T08:10:24.311Z,53.20
2019-01-22T08:13:49.698Z,53.20
2019-01-22T08:17:13.872Z,53.00
2019-01-22T08:20:40.743Z,52.60
2019-01-22T08:24:12.560Z,52.10
2019-01-22T08:27:29.665Z,51.70
2019-01-22T08:30:38.996Z,51.50
2019-01-22T08:34:17.648Z,51.60
2019-01-22T08:37:47.614Z,51.60
2019-01-22T08:41:14.033Z,51.10
2019-01-22T08:44:41.828Z,51.20
2019-01-22T08:48:13.645Z,51.50
2019-01-22T08:51:40.883Z,51.60
2019-01-22T08:55:08.193Z,51.50
2019-01-22T08:58:32.240Z,52.30
2019-01-22T09:01:51.723Z,52.60
2019-01-22T09:05:28.262Z,53.60
2019-01-22T09:09:02.220Z,54.10
2019-01-22T09:12:39.498Z,54.20
2019-01-22T09:16:02.766Z,54.20
2019-01-22T09:19:32.582Z,54.20
2019-01-22T09:22:56.051Z,54.20
2019-01-22T09:26:02.396Z,54.80
2019-01-22T09:29:14.223Z,54.70
2019-01-22T09:32:42.759Z,53.40
2019-01-22T09:36:29.270Z,52.90
2019-01-22T09:39:01.291Z,53.30
2019-01-22T09:41:33.264Z,53.70
2019-01-22T09:44:05.251Z,53.50
2019-01-22T09:46:37.241Z,53.80
2019-01-22T09:49:09.127Z,53.70
2019-01-22T09:51:41.019Z,53.50
2019-01-22T09:54:12.870Z,53.50
2019-01-22T09:56:44.761Z,53.10
2019-01-22T09:59:16.619Z,52.70
2019-01-22T10:01:48.509Z,52.40
2019-01-22T10:04:20.373Z,52.60
2019-01-22T10:06:52.259Z,53.30
2019-01-22T10:09:24.121Z,54.20
2019-01-22T10:11:56.033Z,54.80
2019-01-22T10:14:28.002Z,55.20
2019-01-22T10:16:59.972Z,55.30
2019-01-22T10:19:31.852Z,55.40
2019-01-22T10:22:03.819Z,55.80
2019-01-22T10:24:35.788Z,55.90
2019-01-22T10:27:07.675Z,55.80
2019-01-22T10:29:39.531Z,55.70
2019-01-22T10:32:11.427Z,56.10
2019-01-22T10:34:43.275Z,56.60
2019-01-22T10:37:15.164Z,56.10
2019-01-22T10:39:47.107Z,55.80
2019-01-22T10:42:19.042Z,54.90
2019-01-22T10:44:50.896Z,55.20
2019-01-22T10:47:22.794Z,55.60
2019-01-22T10:49:54.645Z,55.70
2019-01-22T10:52:26.542Z,55.60
2019-01-22T10:54:58.394Z,55.40
2019-01-22T10:57:30.327Z,54.60
2019-01-22T11:00:04.745Z,55.30
2019-01-22T11:02:35.792Z,55.70
2019-01-22T11:05:13.599Z,55.40
2019-01-22T11:07:45.498Z,54.90
2019-01-22T11:10:17.349Z,54.30
2019-01-22T11:12:49.223Z,53.50
2019-01-22T11:15:27.663Z,52.70
2019-01-22T11:17:54.662Z,53.10
2019-01-22T11:20:28.447Z,53.70
2019-01-22T11:23:00.475Z,54.40
2019-01-22T11:25:33.186Z,54.80
2019-01-22T11:28:05.495Z,54.70
2019-01-22T11:30:37.351Z,55.40
2019-01-22T11:33:09.232Z,55.20
2019-01-22T11:35:41.208Z,55.00
2019-01-22T11:38:13.103Z,54.90
2019-01-22T11:40:47.702Z,54.80
2019-01-22T11:43:19.652Z,55.00
2019-01-22T11:45:51.503Z,55.00
2019-01-22T11:48:23.390Z,54.20
2019-01-22T11:50:55.247Z,53.30
2019-01-22T11:53:27.118Z,53.30
2019-01-22T11:55:58.979Z,52.80
2019-01-22T11:58:30.851Z,52.60
2019-01-22T12:01:03.184Z,52.60
2019-01-22T12:03:35.059Z,52.90
2019-01-22T12:06:06.913Z,52.80
2019-01-22T12:08:38.804Z,52.50
2019-01-22T12:11:10.640Z,52.60
2019-01-22T12:13:42.522Z,53.10
2019-01-22T12:16:14.376Z,53.00
2019-01-22T12:18:46.271Z,53.00
2019-01-22T12:21:18.481Z,53.30
2019-01-22T12:23:50.479Z,53.60
2019-01-22T12:26:22.341Z,53.70
2019-01-22T12:28:54.295Z,54.60
2019-01-22T12:31:26.143Z,54.60
2019-01-22T12:33:58.034Z,54.60
2019-01-22T12:36:29.902Z,54.20
2019-01-22T12:39:01.779Z,53.90
2019-01-22T12:41:33.644Z,53.50
2019-01-22T12:44:05.503Z,53.10
2019-01-22T12:46:37.359Z,52.70
2019-01-22T12:49:09.236Z,53.30
2019-01-22T12:51:41.101Z,53.60
2019-01-22T12:54:12.986Z,54.00
2019-01-22T12:56:44.828Z,54.20
2019-01-22T12:59:16.707Z,54.20
2019-01-22T13:01:48.576Z,53.70
2019-01-22T13:04:20.455Z,53.80
2019-01-22T13:06:52.292Z,53.40
2019-01-22T13:09:24.175Z,52.80
2019-01-22T13:11:56.023Z,52.50
2019-01-22T13:14:27.911Z,52.60
2019-01-22T13:16:59.755Z,52.80
2019-01-22T13:19:31.713Z,53.30
2019-01-22T13:22:03.607Z,53.20
2019-01-22T13:24:35.560Z,53.10
2019-01-22T13:27:07.580Z,52.50
2019-01-22T13:29:39.468Z,52.20
2019-01-22T13:32:11.325Z,52.20
2019-01-22T13:34:43.385Z,51.90
2019-01-22T13:37:15.237Z,52.30
2019-01-22T13:39:47.124Z,52.40
2019-01-22T13:42:18.999Z,51.90
2019-01-22T13:44:50.915Z,51.00
2019-01-22T13:47:22.768Z,51.10
2019-01-22T13:49:54.649Z,51.20
2019-01-22T13:52:26.489Z,51.70
2019-01-22T13:54:58.383Z,51.30
2019-01-22T13:57:30.227Z,52.40
2019-01-22T14:00:05.376Z,51.30
2019-01-22T14:02:36.119Z,51.50
2019-01-22T14:05:08.204Z,51.00
2019-01-22T14:07:40.042Z,50.70
2019-01-22T14:10:12.973Z,51.20
2019-01-22T14:12:45.061Z,51.80
2019-01-22T14:15:20.758Z,53.00
2019-01-22T14:17:52.644Z,54.50
2019-01-22T14:20:24.533Z,54.80
2019-01-22T14:22:56.410Z,54.80
2019-01-22T14:25:28.389Z,54.70
2019-01-22T14:28:00.239Z,54.40
2019-01-22T14:30:35.372Z,54.20
2019-01-22T14:33:07.636Z,54.40
2019-01-22T14:35:39.600Z,54.60
2019-01-22T14:38:11.481Z,54.50
2019-01-22T14:40:43.530Z,54.70
2019-01-22T14:43:15.372Z,54.30
2019-01-22T14:45:47.423Z,53.60
2019-01-22T14:48:19.278Z,52.80
2019-01-22T14:50:51.188Z,52.10
2019-01-22T14:53:23.042Z,52.20
2019-01-22T14:55:54.926Z,52.20
2019-01-22T14:58:26.774Z,52.50
2019-01-22T15:00:59.135Z,53.00
2019-01-22T15:03:31.028Z,53.30
2019-01-22T15:06:03.213Z,52.60
2019-01-22T15:08:35.269Z,52.60
2019-01-22T15:11:07.661Z,52.40
2019-01-22T15:13:39.638Z,52.70
2019-01-22T15:16:11.515Z,53.00
2019-01-22T15:18:43.443Z,52.80
2019-01-22T15:21:15.682Z,52.90
2019-01-22T15:23:47.533Z,53.20
2019-01-22T15:26:19.873Z,53.30
2019-01-22T15:28:51.722Z,53.40
2019-01-22T15:31:25.485Z,53.60
2019-01-22T15:33:58.569Z,53.70
2019-01-22T15:36:30.634Z,53.30
2019-01-22T15:39:02.650Z,53.10
2019-01-22T15:41:34.986Z,53.10
2019-01-22T15:44:07.277Z,53.10
2019-01-22T15:46:39.315Z,53.00
2019-01-22T15:49:11.170Z,53.30
2019-01-22T15:51:43.100Z,53.60
2019-01-22T15:54:14.934Z,53.80
2019-01-22T15:56:46.860Z,54.20
2019-01-22T15:59:18.663Z,54.40
2019-01-22T16:01:50.552Z,54.70
2019-01-22T16:04:22.402Z,54.80
2019-01-22T16:06:54.277Z,54.90
2019-01-22T16:09:26.132Z,55.10
2019-01-22T16:11:58.021Z,55.00
2019-01-22T16:14:29.875Z,55.10
2019-01-22T16:17:01.764Z,55.10
2019-01-22T16:19:33.614Z,55.00
2019-01-22T16:22:05.762Z,55.10
2019-01-22T16:24:37.971Z,55.20
2019-01-22T16:27:10.637Z,55.00
2019-01-22T16:29:42.929Z,55.30
2019-01-22T16:32:18.819Z,55.60
2019-01-22T16:34:51.608Z,55.50
2019-01-22T16:37:23.554Z,55.80
2019-01-22T16:39:55.457Z,55.70
2019-01-22T16:42:28.004Z,55.90
2019-01-22T16:45:00.587Z,56.40
2019-01-22T16:47:32.641Z,56.80
2019-01-22T16:50:05.377Z,56.90
2019-01-22T16:52:37.856Z,56.80
2019-01-22T16:55:14.608Z,57.10
2019-01-22T16:57:47.107Z,57.30
2019-01-22T17:00:23.451Z,58.10
2019-01-22T17:02:56.704Z,57.80
2019-01-22T17:05:30.567Z,57.80
2019-01-22T17:08:06.318Z,57.20
2019-01-22T17:10:40.026Z,57.00
2019-01-22T17:13:12.338Z,56.90
2019-01-22T17:15:44.483Z,56.90
2019-01-22T17:18:17.751Z,57.20
2019-01-22T17:20:51.204Z,57.40
2019-01-22T17:23:24.500Z,57.20
2019-01-22T17:25:57.750Z,57.00
2019-01-22T17:28:30.915Z,56.10
2019-01-22T17:31:15.040Z,55.30
2019-01-22T17:33:51.632Z,55.80
2019-01-22T17:36:25.033Z,56.60
2019-01-22T17:38:58.208Z,56.80
2019-01-22T17:41:31.378Z,56.40
2019-01-22T17:44:03.978Z,56.60
2019-01-22T17:46:35.926Z,56.80
2019-01-22T17:49:07.948Z,57.00
2019-01-22T17:51:39.841Z,56.60
2019-01-22T17:54:11.775Z,56.00
2019-01-22T17:56:43.771Z,55.60
2019-01-22T17:59:15.654Z,55.10
2019-01-22T18:01:47.531Z,55.10
2019-01-22T18:04:19.441Z,55.40
2019-01-22T18:06:51.319Z,55.70
2019-01-22T18:09:23.217Z,56.20
2019-01-22T18:11:55.110Z,56.20
2019-01-22T18:14:27.167Z,56.70
2019-01-22T18:16:59.031Z,56.80
2019-01-22T18:19:33.640Z,56.90
2019-01-22T18:22:06.951Z,56.70
2019-01-22T18:24:39.793Z,56.60
2019-01-22T18:27:12.580Z,56.50
2019-01-22T18:29:45.373Z,56.10
2019-01-22T18:32:17.417Z,56.70
2019-01-22T18:34:51.263Z,57.10
2019-01-22T18:37:24.384Z,57.00
2019-01-22T18:39:58.085Z,57.20
2019-01-22T18:42:32.017Z,57.40
2019-01-22T18:45:05.385Z,57.50
2019-01-22T18:47:39.087Z,56.80
2019-01-22T18:50:17.847Z,56.80
2019-01-22T18:52:51.882Z,57.20
2019-01-22T18:55:24.284Z,57.80
2019-01-22T18:57:57.771Z,58.20
2019-01-22T19:00:29.929Z,58.30
2019-01-22T19:03:02.798Z,58.20
2019-01-22T19:05:35.297Z,57.90
2019-01-22T19:08:07.282Z,58.10
2019-01-22T19:10:39.906Z,58.20
2019-01-22T19:13:16.141Z,58.10
2019-01-22T19:15:49.899Z,58.00
2019-01-22T19:18:23.663Z,58.80
2019-01-22T19:20:57.034Z,58.70
2019-01-22T19:23:29.776Z,58.80
2019-01-22T19:26:01.674Z,59.20
2019-01-22T19:28:35.009Z,59.30
2019-01-22T19:31:11.106Z,59.10
2019-01-22T19:33:44.481Z,59.10
2019-01-22T19:36:16.984Z,59.80
2019-01-22T19:38:49.396Z,60.50
2019-01-22T19:41:22.606Z,60.70
2019-01-22T19:43:57.597Z,60.40
2019-01-22T19:46:30.264Z,59.60
2019-01-22T19:49:03.739Z,59.20
2019-01-22T19:51:37.817Z,59.70
2019-01-22T19:54:11.119Z,60.20
2019-01-22T19:56:44.190Z,60.60
2019-01-22T19:59:16.078Z,61.10
2019-01-22T20:01:48.001Z,61.60
2019-01-22T20:04:19.880Z,61.50
2019-01-22T20:06:52.979Z,61.00
2019-01-22T20:09:24.870Z,60.50
2019-01-22T20:11:56.795Z,59.70
2019-01-22T20:14:28.694Z,59.60
2019-01-22T20:17:00.586Z,60.00
2019-01-22T20:19:32.442Z,60.20
2019-01-22T20:22:04.354Z,59.80
2019-01-22T20:24:36.215Z,59.20
2019-01-22T20:27:09.175Z,58.70
2019-01-22T20:29:41.210Z,58.20
2019-01-22T20:32:14.356Z,58.00
2019-01-22T20:34:46.274Z,58.30
2019-01-22T20:37:19.063Z,58.20
2019-01-22T20:39:51.081Z,58.10
2019-01-22T20:42:23.422Z,57.70
2019-01-22T20:44:55.541Z,57.10
2019-01-22T20:47:27.731Z,57.00
2019-01-22T20:49:59.601Z,56.70
2019-01-22T20:52:31.537Z,57.00
2019-01-22T20:55:03.518Z,57.00
2019-01-22T20:57:35.414Z,57.10
2019-01-22T21:00:12.049Z,57.00
2019-01-22T21:02:44.089Z,56.80
2019-01-22T21:05:19.526Z,57.10
2019-01-22T21:07:51.598Z,57.00
2019-01-22T21:10:29.970Z,57.00
2019-01-22T21:13:01.883Z,56.40
2019-01-22T21:15:33.961Z,56.30
2019-01-22T21:18:05.913Z,55.80
2019-01-22T21:20:37.805Z,56.20
2019-01-22T21:23:09.691Z,56.10
2019-01-22T21:25:41.552Z,56.30
2019-01-22T21:28:13.523Z,56.60
2019-01-22T21:30:45.400Z,57.30
2019-01-22T21:33:17.342Z,57.70
2019-01-22T21:35:49.254Z,57.70
2019-01-22T21:38:21.530Z,57.40
2019-01-22T21:40:53.402Z,57.20
2019-01-22T21:43:25.401Z,57.10
2019-01-22T21:45:57.819Z,57.30
2019-01-22T21:48:31.003Z,57.30
2019-01-22T21:51:02.896Z,56.70
2019-01-22T21:53:34.796Z,56.60
2019-01-22T21:56:06.697Z,56.40
2019-01-22T21:58:38.708Z,56.80
2019-01-22T22:01:10.584Z,56.50
2019-01-22T22:03:42.871Z,56.40
2019-01-22T22:06:14.721Z,56.60
2019-01-22T22:08:46.673Z,56.60
2019-01-22T22:11:18.544Z,56.40
2019-01-22T22:13:51.169Z,56.50
2019-01-22T22:16:23.074Z,56.40
2019-01-22T22:18:55.377Z,56.50
2019-01-22T22:21:27.488Z,56.60
2019-01-22T22:23:59.451Z,56.70
2019-01-22T22:26:31.523Z,57.10
2019-01-22T22:29:03.719Z,57.70
2019-01-22T22:31:35.579Z,57.90
2019-01-22T22:34:07.476Z,58.60
2019-01-22T22:36:39.354Z,58.50
2019-01-22T22:39:11.660Z,58.50
2019-01-22T22:42:02.664Z,58.50
2019-01-22T22:44:34.746Z,58.50
2019-01-22T22:47:06.989Z,57.90
2019-01-22T22:49:39.100Z,57.70
2019-01-22T22:52:11.045Z,57.70
2019-01-22T22:54:43.010Z,57.50
2019-01-22T22:57:14.929Z,56.70
2019-01-22T22:59:46.925Z,57.00
2019-01-22T23:02:18.783Z,57.50
2019-01-22T23:04:50.677Z,57.30
2019-01-22T23:07:23.103Z,57.00
2019-01-22T23:09:55.324Z,57.10
2019-01-22T23:12:27.410Z,56.80
2019-01-22T23:14:59.916Z,56.70
2019-01-22T23:17:31.855Z,56.20
2019-01-22T23:20:03.902Z,56.00
2019-01-22T23:22:39.175Z,55.80
2019-01-22T23:25:11.130Z,55.40
2019-01-22T23:27:43.089Z,55.50
2019-01-22T23:30:15.913Z,55.50
2019-01-22T23:32:48.401Z,55.70
2019-01-22T23:35:21.226Z,55.50
2019-01-22T23:37:53.078Z,55.50
2019-01-22T23:40:24.987Z,55.70
2019-01-22T23:42:56.888Z,56.10
2019-01-22T23:45:28.769Z,56.20
2019-01-22T23:48:00.625Z,56.40
2019-01-22T23:50:32.506Z,56.80
2019-01-22T23:53:04.504Z,57.10
2019-01-22T23:55:36.419Z,57.50
2019-01-22T23:58:08.279Z,57.60
